createdAt,value
2022-10-31T00:03:03.722Z,10.40
2022-10-31T00:08:05.542Z,11.40
2022-10-31T00:13:07.877Z,11.73
2022-10-31T00:18:10.430Z,11.73
2022-10-31T00:23:12.341Z,10.73
2022-10-31T00:28:14.051Z,11.90
2022-10-31T00:33:15.852Z,10.90
2022-10-31T00:38:17.734Z,9.50
2022-10-31T00:43:19.391Z,9.80
2022-10-31T00:48:21.111Z,9.90
2022-10-31T00:53:24.167Z,10.27
2022-10-31T00:58:26.018Z,10.80
2022-10-31T01:03:29.934Z,9.30
2022-10-31T01:08:31.595Z,10.03
2022-10-31T01:13:33.352Z,9.90
2022-10-31T01:18:36.893Z,9.70
2022-10-31T01:23:38.567Z,10.00
2022-10-31T01:28:44.420Z,8.90
2022-10-31T01:33:46.109Z,9.80
2022-10-31T01:38:48.112Z,9.33
2022-10-31T01:43:55.666Z,8.80
2022-10-31T01:48:57.853Z,9.60
2022-10-31T01:54:01.838Z,9.03
2022-10-31T01:59:03.493Z,9.93
2022-10-31T02:04:05.551Z,11.37
2022-10-31T02:09:07.283Z,11.67
2022-10-31T02:14:08.936Z,11.10
2022-10-31T02:19:11.121Z,11.53
2022-10-31T02:24:41.899Z,11.67
2022-10-31T02:30:00.869Z,11.80
2022-10-31T02:35:18.565Z,12.33
2022-10-31T02:40:28.116Z,13.30
2022-10-31T02:46:08.653Z,13.73
2022-10-31T02:51:10.823Z,16.00
2022-10-31T02:56:13.566Z,17.43
2022-10-31T03:01:18.181Z,19.27
2022-10-31T03:06:31.846Z,20.57
2022-10-31T03:11:59.175Z,23.60
2022-10-31T03:17:02.019Z,23.40
2022-10-31T03:22:17.779Z,29.60
2022-10-31T03:27:21.579Z,34.03
2022-10-31T03:32:37.655Z,39.10
2022-10-31T03:37:39.427Z,42.57
2022-10-31T03:42:49.691Z,43.03
2022-10-31T03:47:51.403Z,41.87
2022-10-31T03:52:59.259Z,43.37
2022-10-31T03:58:13.732Z,45.60
2022-10-31T04:03:18.567Z,44.87
2022-10-31T04:08:27.612Z,44.57
2022-10-31T04:13:31.530Z,43.47
2022-10-31T04:18:40.684Z,45.67
2022-10-31T04:23:42.371Z,46.50
2022-10-31T04:28:54.535Z,42.20
2022-10-31T04:33:56.306Z,43.70
2022-10-31T04:38:58.479Z,41.97
2022-10-31T04:44:22.258Z,43.90
2022-10-31T04:49:26.983Z,43.70
2022-10-31T04:54:28.667Z,40.43
2022-10-31T05:00:05.990Z,39.93
2022-10-31T05:05:09.738Z,39.97
2022-10-31T05:10:12.706Z,37.77
2022-10-31T05:15:14.819Z,39.07
2022-10-31T05:20:29.635Z,36.77
2022-10-31T05:25:42.083Z,38.20
2022-10-31T05:30:43.911Z,39.27
2022-10-31T05:35:49.070Z,37.40
2022-10-31T05:41:11.989Z,37.17
2022-10-31T05:46:17.689Z,37.97
2022-10-31T05:51:38.041Z,39.37
2022-10-31T05:56:39.775Z,38.90
2022-10-31T06:01:41.608Z,39.50
2022-10-31T06:06:58.107Z,39.43
2022-10-31T06:12:00.417Z,39.77
2022-10-31T06:17:02.118Z,37.27
2022-10-31T06:22:35.989Z,38.87
2022-10-31T06:27:37.719Z,37.33
2022-10-31T06:32:45.946Z,41.27
2022-10-31T06:37:54.465Z,40.37
2022-10-31T06:43:06.165Z,40.87
2022-10-31T06:48:23.741Z,40.53
2022-10-31T06:53:49.441Z,41.20
2022-10-31T06:58:52.207Z,40.47
2022-10-31T07:04:04.996Z,40.20
2022-10-31T07:09:09.794Z,38.87
2022-10-31T07:14:11.504Z,41.23
2022-10-31T07:19:13.282Z,45.20
2022-10-31T07:24:15.381Z,42.90
2022-10-31T07:29:17.035Z,39.67
2022-10-31T07:34:18.888Z,41.07
2022-10-31T07:39:49.929Z,40.50
2022-10-31T07:44:53.913Z,41.50
2022-10-31T07:50:25.367Z,41.37
2022-10-31T07:55:45.815Z,41.50
2022-10-31T08:00:49.030Z,41.80
2022-10-31T08:06:00.814Z,41.00
2022-10-31T08:11:22.861Z,42.60
2022-10-31T08:16:24.651Z,43.60
2022-10-31T08:21:31.946Z,44.07
2022-10-31T08:26:34.133Z,41.80
2022-10-31T08:31:38.937Z,41.90
2022-10-31T08:37:02.984Z,42.07
2022-10-31T08:42:12.221Z,43.80
2022-10-31T08:47:13.940Z,43.07
2022-10-31T08:52:16.079Z,40.87
2022-10-31T08:57:19.595Z,39.77
2022-10-31T09:02:22.881Z,39.33
2022-10-31T09:07:27.908Z,41.60
2022-10-31T09:12:29.856Z,38.33
2022-10-31T09:17:50.460Z,38.70
2022-10-31T09:23:20.187Z,35.20
2022-10-31T09:28:23.457Z,38.07
2022-10-31T09:33:25.431Z,43.27
2022-10-31T09:38:47.093Z,39.87
2022-10-31T09:43:55.010Z,39.57
2022-10-31T09:49:18.500Z,41.87
2022-10-31T09:54:44.171Z,38.87
2022-10-31T09:59:46.082Z,39.97
2022-10-31T10:05:10.851Z,38.40
2022-10-31T10:10:54.542Z,42.40
2022-10-31T10:16:39.405Z,41.83
2022-10-31T10:21:52.231Z,42.67
2022-10-31T10:27:02.823Z,43.20
2022-10-31T10:32:11.593Z,42.87
2022-10-31T10:37:29.352Z,44.77
2022-10-31T10:42:49.684Z,42.83
2022-10-31T10:47:58.027Z,43.03
2022-10-31T10:53:07.777Z,41.00
2022-10-31T10:58:09.697Z,39.40
2022-10-31T11:03:11.916Z,36.97
2022-10-31T11:08:30.861Z,36.20
2022-10-31T11:13:32.766Z,35.00
2022-10-31T11:18:37.872Z,34.77
2022-10-31T11:23:39.566Z,31.13
2022-10-31T11:28:41.275Z,33.87
2022-10-31T11:33:47.791Z,34.57
2022-10-31T11:38:49.605Z,35.10
2022-10-31T11:44:12.352Z,33.93
2022-10-31T11:49:41.889Z,31.43
2022-10-31T11:54:47.704Z,31.13
2022-10-31T11:59:57.227Z,30.00
2022-10-31T12:05:22.456Z,29.63
2022-10-31T12:10:41.364Z,27.80
2022-10-31T12:15:47.106Z,27.90
2022-10-31T12:20:55.868Z,28.77
2022-10-31T12:26:17.367Z,27.93
2022-10-31T12:31:37.683Z,26.30
2022-10-31T12:36:55.061Z,25.30
2022-10-31T12:42:18.366Z,25.87
2022-10-31T12:47:34.389Z,25.70
2022-10-31T12:52:48.098Z,25.80
2022-10-31T12:57:53.155Z,25.50
2022-10-31T13:03:01.457Z,24.43
2022-10-31T13:08:19.817Z,24.00
2022-10-31T13:13:31.529Z,23.60
2022-10-31T13:18:35.792Z,21.40
2022-10-31T13:23:50.804Z,21.83
2022-10-31T13:29:22.617Z,21.60
2022-10-31T13:34:35.157Z,21.27
2022-10-31T13:39:52.020Z,20.20
2022-10-31T13:44:53.699Z,18.80
2022-10-31T13:50:19.732Z,19.37
2022-10-31T13:55:36.871Z,19.27
2022-10-31T14:00:38.636Z,19.00
2022-10-31T14:05:40.329Z,23.23
2022-10-31T14:10:48.338Z,22.03
2022-10-31T14:15:57.490Z,22.97
2022-10-31T14:20:59.147Z,21.53
2022-10-31T14:26:27.457Z,22.30
2022-10-31T14:31:33.015Z,21.30
2022-10-31T14:37:00.558Z,20.17
2022-10-31T14:42:26.453Z,19.60
2022-10-31T14:48:08.009Z,17.80
2022-10-31T14:53:14.875Z,17.63
2022-10-31T14:58:19.644Z,17.33
2022-10-31T15:03:34.486Z,18.70
2022-10-31T15:08:38.642Z,17.90
2022-10-31T15:13:50.734Z,17.80
2022-10-31T15:19:05.891Z,17.27
2022-10-31T15:24:11.974Z,18.03
2022-10-31T15:29:15.876Z,16.77
2022-10-31T15:34:23.637Z,17.73
2022-10-31T15:39:25.332Z,18.13
2022-10-31T15:44:32.837Z,18.70
2022-10-31T15:49:42.169Z,19.67
2022-10-31T15:54:49.864Z,19.50
2022-10-31T15:59:51.652Z,20.83
2022-10-31T16:05:01.973Z,22.03
2022-10-31T16:10:04.644Z,22.63
2022-10-31T16:15:06.671Z,22.17
2022-10-31T16:20:08.634Z,21.30
2022-10-31T16:25:15.058Z,22.23
2022-10-31T16:30:41.731Z,23.93
2022-10-31T16:35:45.837Z,24.23
2022-10-31T16:40:48.074Z,23.97
2022-10-31T16:45:51.158Z,25.30
2022-10-31T16:50:52.833Z,24.70
2022-10-31T16:55:58.983Z,25.30
2022-10-31T17:01:06.072Z,26.10
2022-10-31T17:06:11.785Z,25.90
2022-10-31T17:11:18.829Z,27.60
2022-10-31T17:16:20.557Z,27.23
2022-10-31T17:21:23.279Z,27.87
2022-10-31T17:26:24.965Z,28.47
2022-10-31T17:31:31.091Z,29.70
2022-10-31T17:36:33.562Z,30.83
2022-10-31T17:41:35.292Z,32.07
2022-10-31T17:46:37.258Z,32.30
2022-10-31T17:51:38.984Z,35.10
2022-10-31T17:56:40.659Z,35.17
2022-10-31T18:01:42.517Z,35.47
2022-10-31T18:06:44.358Z,39.60
2022-10-31T18:11:46.126Z,37.13
2022-10-31T18:16:47.830Z,40.20
2022-10-31T18:21:49.573Z,41.63
2022-10-31T18:26:51.362Z,42.83
2022-10-31T18:31:54.290Z,42.30
2022-10-31T18:36:55.953Z,40.37
2022-10-31T18:41:57.673Z,42.00
2022-10-31T18:46:59.367Z,40.60
2022-10-31T18:52:01.071Z,41.67
2022-10-31T18:57:02.752Z,41.80
2022-10-31T19:02:04.516Z,44.20
2022-10-31T19:07:06.382Z,45.90
2022-10-31T19:12:08.097Z,47.90
2022-10-31T19:17:09.774Z,49.90
2022-10-31T19:22:11.460Z,48.87
2022-10-31T19:27:13.391Z,50.30
2022-10-31T19:32:15.282Z,51.33
2022-10-31T19:37:17.005Z,50.53
2022-10-31T19:42:18.681Z,50.40
2022-10-31T19:47:20.404Z,51.83
2022-10-31T19:52:23.261Z,50.60
2022-10-31T19:57:48.477Z,52.27
2022-10-31T20:02:46.559Z,52.10
2022-10-31T20:07:48.232Z,51.10
2022-10-31T20:12:49.895Z,51.47
2022-10-31T20:17:51.574Z,52.50
2022-10-31T20:22:53.447Z,53.63
2022-10-31T20:27:55.224Z,51.80
2022-10-31T20:32:56.945Z,51.53
2022-10-31T20:37:58.788Z,53.17
2022-10-31T20:43:01.353Z,54.30
2022-10-31T20:48:03.333Z,52.03
2022-10-31T20:53:05.899Z,54.40
2022-10-31T20:58:07.573Z,55.47
2022-10-31T21:03:09.311Z,56.50
2022-10-31T21:08:10.986Z,56.60
2022-10-31T21:13:12.663Z,60.13
2022-10-31T21:18:14.766Z,56.20
2022-10-31T21:23:16.474Z,56.77
2022-10-31T21:28:18.175Z,58.53
2022-10-31T21:33:19.952Z,57.63
2022-10-31T21:38:21.719Z,58.07
2022-10-31T21:43:23.401Z,57.23
2022-10-31T21:48:28.886Z,56.83
2022-10-31T21:53:49.341Z,58.27
2022-10-31T21:58:51.500Z,57.10
2022-10-31T22:03:53.195Z,55.20
2022-10-31T22:08:54.997Z,56.20
2022-10-31T22:13:58.366Z,58.00
2022-10-31T22:19:00.204Z,57.37
2022-10-31T22:24:04.976Z,63.80
2022-10-31T22:29:11.113Z,60.23
2022-10-31T22:34:12.860Z,59.80
2022-10-31T22:39:14.578Z,62.07
2022-10-31T22:44:16.309Z,65.20
2022-10-31T22:49:18.391Z,59.70
2022-10-31T22:54:20.147Z,63.07
2022-10-31T22:59:21.806Z,65.60
2022-10-31T23:04:23.596Z,65.40
2022-10-31T23:09:25.283Z,67.40
2022-10-31T23:14:27.009Z,68.70
2022-10-31T23:19:29.709Z,70.27
2022-10-31T23:24:39.447Z,71.17
2022-10-31T23:29:45.060Z,73.40
2022-10-31T23:34:47.333Z,69.43
2022-10-31T23:39:49.040Z,69.93
2022-10-31T23:44:50.764Z,71.10
2022-10-31T23:49:52.506Z,70.60
2022-10-31T23:54:54.274Z,73.27
2022-10-31T23:59:55.978Z,75.07
